»·PEaware :: N978AP KSNA-KBUR

N978AP :: KSNA-KBUR

FLIGHT INFORMATION

Flight Status: Arrived
Operator: Privately registered:
United States
More flights under this callsign
Pilot: Francisco M. (12844)
Aircraft: CESSNA 172 SKYHAWK
(C172)
More flights by this aircraft type
Origin: KSNA John Wayne-Orange Co
United States
Destination: KBUR Bob Hope-Burbank
United States
More flights between these airports :: More routes between these airports
Route: +SLI V23 POPPR SMO125R SMO SMO311R SILEX
File this flight plan on PilotEdge
Remarks: I 3 RATING
Altitude:
(Current/Filed)
4,000ft
Speed:
(Current/Filed)
115kts
Departed: 13-Jan-18 05:56 PM
Arrived: 13-Jan-18 06:53 PM
Distance/Time
Traveled:
40nm/0:56
Distance/Time
To Go:
Arrived

Flight Plot

Page will automatically refresh every two minutes.


Map Options




Map Legend


Flown Route
Filed Route
Departure Airport
Arrival Airport
Navaid (VOR, NDB)
Fix

Horizontal Profiles

Position Reports

Time Latitude Longitude Heading Altitude Ground
Speed
13-Jan-18 17:27 33.669210 -117.875344 27 59ft 0kts
13-Jan-18 17:28 33.669210 -117.875344 27 59ft 0kts
13-Jan-18 17:29 33.669210 -117.875344 27 59ft 0kts
13-Jan-18 17:30 33.669210 -117.875344 27 59ft 0kts
13-Jan-18 17:31 33.669210 -117.875344 27 59ft 0kts
13-Jan-18 17:32 33.669210 -117.875344 27 59ft 0kts
13-Jan-18 17:33 33.669210 -117.875344 27 59ft 0kts
13-Jan-18 17:34 33.669210 -117.875344 27 59ft 0kts
13-Jan-18 17:35 33.669210 -117.875344 27 59ft 0kts
13-Jan-18 17:36 33.669210 -117.875344 27 59ft 0kts
13-Jan-18 17:37 33.669210 -117.875344 27 59ft 0kts
13-Jan-18 17:38 33.669210 -117.875344 27 59ft 0kts
13-Jan-18 17:39 33.669210 -117.875344 27 59ft 0kts
13-Jan-18 17:40 33.669210 -117.875344 27 59ft 0kts
13-Jan-18 17:41 33.669210 -117.875344 27 59ft 0kts
13-Jan-18 17:42 33.669210 -117.875344 27 59ft 0kts
13-Jan-18 17:43 33.669210 -117.875344 27 59ft 0kts
13-Jan-18 17:44 33.669210 -117.875344 27 59ft 0kts
13-Jan-18 17:45 33.669210 -117.875344 27 59ft 0kts
13-Jan-18 17:46 33.669210 -117.875344 27 59ft 0kts
13-Jan-18 17:47 33.669210 -117.875344 27 59ft 0kts
13-Jan-18 17:48 33.669210 -117.875344 27 59ft 0kts
13-Jan-18 17:49 33.669210 -117.875344 27 59ft 0kts
13-Jan-18 17:50 33.669212 -117.875343 28 59ft 0kts
13-Jan-18 17:51 33.669081 -117.874854 119 59ft 0kts
13-Jan-18 17:52 33.670442 -117.873697 23 59ft 9kts
13-Jan-18 17:53 33.674290 -117.871216 27 59ft 11kts
13-Jan-18 17:54 33.679754 -117.867937 22 59ft 27kts
13-Jan-18 17:55 33.681234 -117.866418 111 59ft 0kts
13-Jan-18 17:56 33.681234 -117.866418 111 59ft 0kts
13-Jan-18 17:57 33.681234 -117.866418 111 59ft 0kts
13-Jan-18 17:58 33.681234 -117.866418 111 59ft 0kts
13-Jan-18 17:59 33.681234 -117.866418 111 59ft 0kts
13-Jan-18 18:00 33.681234 -117.866418 111 59ft 0kts
13-Jan-18 18:01 33.681234 -117.866418 111 59ft 0kts
13-Jan-18 18:02 33.676962 -117.868059 208 99ft 72kts
13-Jan-18 18:03 33.665462 -117.888719 251 1181ft 79kts
13-Jan-18 18:04 33.664538 -117.917002 265 1778ft 114kts
13-Jan-18 18:05 33.656105 -117.947902 248 1998ft 104kts
13-Jan-18 18:06 33.649697 -117.975584 245 3044ft 84kts
13-Jan-18 18:07 33.643663 -118.004228 288 3949ft 91kts
13-Jan-18 18:08 33.659538 -118.027094 330 4288ft 93kts
13-Jan-18 18:09 33.676859 -118.052717 312 4502ft 106kts
13-Jan-18 18:10 33.693756 -118.082506 299 3982ft 101kts
13-Jan-18 18:11 33.708438 -118.114223 317 4099ft 111kts
13-Jan-18 18:12 33.732705 -118.137776 333 4331ft 102kts
13-Jan-18 18:13 33.754136 -118.166760 296 4259ft 124kts
13-Jan-18 18:14 33.771134 -118.203293 312 4266ft 120kts
13-Jan-18 18:15 33.788989 -118.236304 300 3996ft 119kts
13-Jan-18 18:16 33.809087 -118.262976 336 3898ft 107kts
13-Jan-18 18:17 33.834509 -118.279253 321 3795ft 109kts
13-Jan-18 18:18 33.859138 -118.291803 320 3903ft 100kts
13-Jan-18 18:19 33.882614 -118.311992 322 3816ft 107kts
13-Jan-18 18:20 33.906210 -118.332881 319 3785ft 106kts
13-Jan-18 18:21 33.923049 -118.360713 290 3817ft 105kts
13-Jan-18 18:22 33.941634 -118.387508 326 3958ft 104kts
13-Jan-18 18:23 33.965204 -118.408439 332 4086ft 105kts
13-Jan-18 18:24 33.991169 -118.422386 307 4209ft 105kts
13-Jan-18 18:25 34.010194 -118.449234 329 4314ft 105kts
13-Jan-18 18:26 34.032817 -118.472057 302 4300ft 115kts
13-Jan-18 18:27 34.054203 -118.496360 332 4076ft 105kts
13-Jan-18 18:28 34.077201 -118.518093 326 4085ft 102kts
13-Jan-18 18:29 34.098896 -118.540775 309 4079ft 101kts
13-Jan-18 18:30 34.123541 -118.555822 348 4065ft 100kts
13-Jan-18 18:31 34.142120 -118.580220 322 4036ft 101kts
13-Jan-18 18:32 34.162425 -118.602313 312 4018ft 103kts
13-Jan-18 18:33 34.180399 -118.627551 310 4036ft 101kts
13-Jan-18 18:34 34.192192 -118.657817 303 4021ft 101kts
13-Jan-18 18:35 34.208697 -118.685073 312 3990ft 100kts
13-Jan-18 18:36 34.225319 -118.712371 297 3938ft 108kts
13-Jan-18 18:37 34.207712 -118.739572 177 3909ft 121kts
13-Jan-18 18:38 34.188189 -118.717286 97 3890ft 102kts
13-Jan-18 18:39 34.181337 -118.683695 70 3826ft 102kts
13-Jan-18 18:40 34.189603 -118.652278 68 3835ft 103kts
13-Jan-18 18:41 34.192698 -118.618091 68 3870ft 103kts
13-Jan-18 18:42 34.195848 -118.586190 138 3865ft 116kts
13-Jan-18 18:43 34.180946 -118.605373 273 3831ft 110kts
13-Jan-18 18:44 34.171651 -118.640098 276 3784ft 116kts
13-Jan-18 18:45 34.177666 -118.674898 284 3793ft 114kts
13-Jan-18 18:46 34.177397 -118.711518 274 3896ft 111kts
13-Jan-18 18:47 34.191785 -118.727505 65 3768ft 102kts
13-Jan-18 18:48 34.182822 -118.694959 110 3829ft 110kts
13-Jan-18 18:49 34.185631 -118.664910 49 3849ft 98kts
13-Jan-18 18:50 34.194559 -118.633916 73 3842ft 106kts
13-Jan-18 18:51 34.195018 -118.600639 82 3974ft 103kts
13-Jan-18 18:52 34.195216 -118.565047 83 3362ft 103kts
13-Jan-18 18:53 34.189712 -118.530192 80 3082ft 95kts
13-Jan-18 18:54 34.199708 -118.499073 49 3221ft 98kts
13-Jan-18 18:55 34.203442 -118.469248 112 2760ft 104kts
13-Jan-18 18:56 34.196665 -118.437344 82 2256ft 98kts
13-Jan-18 18:57 34.196439 -118.404037 83 1678ft 97kts
13-Jan-18 18:58 34.198399 -118.377252 83 1302ft 55kts
13-Jan-18 18:59 34.197734 -118.360698 125 715ft 15kts
13-Jan-18 19:00 34.196996 -118.360329 191 713ft 0kts

Navigation Log

Ident Type
1. KSNA Airport
2. SLI Navaid
3. POPPR Fix
4. SMO Navaid
5. SILEX Fix
6. KBUR Airport